sensor_id;sensor_type;location;lat;lon;timestamp;P1;durP1;ratioP1;P2;durP2;ratioP2
31464;SDS011;18089;47.428;15.006;2023-04-21T00:00:06;11.27;;;10.38;;
31464;SDS011;18089;47.428;15.006;2023-04-21T00:02:40;11.20;;;10.30;;
31464;SDS011;18089;47.428;15.006;2023-04-21T00:05:14;9.82;;;9.13;;
31464;SDS011;18089;47.428;15.006;2023-04-21T00:07:46;10.60;;;9.60;;
31464;SDS011;18089;47.428;15.006;2023-04-21T00:10:18;12.02;;;9.77;;
31464;SDS011;18089;47.428;15.006;2023-04-21T00:12:50;10.30;;;9.55;;
31464;SDS011;18089;47.428;15.006;2023-04-21T00:15:22;11.05;;;10.23;;
31464;SDS011;18089;47.428;15.006;2023-04-21T00:17:55;10.15;;;9.45;;
31464;SDS011;18089;47.428;15.006;2023-04-21T00:20:28;10.25;;;9.52;;
31464;SDS011;18089;47.428;15.006;2023-04-21T00:23:00;10.40;;;9.65;;
31464;SDS011;18089;47.428;15.006;2023-04-21T00:25:32;10.02;;;9.30;;
31464;SDS011;18089;47.428;15.006;2023-04-21T00:28:04;11.55;;;10.65;;
31464;SDS011;18089;47.428;15.006;2023-04-21T00:30:36;11.90;;;10.90;;
31464;SDS011;18089;47.428;15.006;2023-04-21T00:33:10;12.27;;;11.18;;
31464;SDS011;18089;47.428;15.006;2023-04-21T00:35:42;12.45;;;11.32;;
31464;SDS011;18089;47.428;15.006;2023-04-21T00:38:14;12.95;;;11.75;;
31464;SDS011;18089;47.428;15.006;2023-04-21T00:40:46;13.43;;;12.13;;
31464;SDS011;18089;47.428;15.006;2023-04-21T00:43:18;14.88;;;13.38;;
31464;SDS011;18089;47.428;15.006;2023-04-21T00:45:50;13.27;;;11.93;;
31464;SDS011;18089;47.428;15.006;2023-04-21T00:48:23;13.00;;;11.90;;
31464;SDS011;18089;47.428;15.006;2023-04-21T00:50:55;12.48;;;11.27;;
31464;SDS011;18089;47.428;15.006;2023-04-21T00:53:27;12.40;;;11.30;;
31464;SDS011;18089;47.428;15.006;2023-04-21T00:55:59;12.50;;;11.48;;
31464;SDS011;18089;47.428;15.006;2023-04-21T00:58:31;11.98;;;11.02;;
31464;SDS011;18089;47.428;15.006;2023-04-21T01:01:04;11.88;;;10.77;;
31464;SDS011;18089;47.428;15.006;2023-04-21T01:03:38;11.45;;;10.45;;
31464;SDS011;18089;47.428;15.006;2023-04-21T01:06:10;11.38;;;10.52;;
31464;SDS011;18089;47.428;15.006;2023-04-21T01:08:42;11.68;;;10.82;;
31464;SDS011;18089;47.428;15.006;2023-04-21T01:11:14;11.55;;;10.45;;
31464;SDS011;18089;47.428;15.006;2023-04-21T01:13:46;11.75;;;10.75;;
31464;SDS011;18089;47.428;15.006;2023-04-21T01:16:18;11.98;;;11.00;;
31464;SDS011;18089;47.428;15.006;2023-04-21T01:18:53;11.82;;;10.77;;
31464;SDS011;18089;47.428;15.006;2023-04-21T01:21:26;11.57;;;10.68;;
31464;SDS011;18089;47.428;15.006;2023-04-21T01:24:02;11.98;;;11.00;;
31464;SDS011;18089;47.428;15.006;2023-04-21T01:26:34;12.10;;;11.15;;
31464;SDS011;18089;47.428;15.006;2023-04-21T01:29:06;11.73;;;10.75;;
31464;SDS011;18089;47.428;15.006;2023-04-21T01:31:38;11.25;;;10.35;;
31464;SDS011;18089;47.428;15.006;2023-04-21T01:34:11;11.95;;;10.95;;
31464;SDS011;18089;47.428;15.006;2023-04-21T01:36:43;12.18;;;11.18;;
31464;SDS011;18089;47.428;15.006;2023-04-21T01:39:16;12.57;;;11.27;;
31464;SDS011;18089;47.428;15.006;2023-04-21T01:41:48;12.27;;;11.18;;
31464;SDS011;18089;47.428;15.006;2023-04-21T01:44:20;13.23;;;12.10;;
31464;SDS011;18089;47.428;15.006;2023-04-21T01:46:52;13.65;;;12.30;;
31464;SDS011;18089;47.428;15.006;2023-04-21T01:49:24;13.80;;;11.38;;
31464;SDS011;18089;47.428;15.006;2023-04-21T01:51:57;11.82;;;10.88;;
31464;SDS011;18089;47.428;15.006;2023-04-21T01:54:30;12.80;;;11.70;;
31464;SDS011;18089;47.428;15.006;2023-04-21T01:57:02;13.95;;;11.60;;
31464;SDS011;18089;47.428;15.006;2023-04-21T01:59:35;12.07;;;11.00;;
31464;SDS011;18089;47.428;15.006;2023-04-21T02:02:08;14.07;;;12.77;;
31464;SDS011;18089;47.428;15.006;2023-04-21T02:04:40;13.27;;;12.00;;
31464;SDS011;18089;47.428;15.006;2023-04-21T02:07:12;16.08;;;13.77;;
31464;SDS011;18089;47.428;15.006;2023-04-21T02:09:45;18.02;;;14.88;;
31464;SDS011;18089;47.428;15.006;2023-04-21T02:12:17;19.13;;;15.25;;
31464;SDS011;18089;47.428;15.006;2023-04-21T02:14:49;19.40;;;14.68;;
31464;SDS011;18089;47.428;15.006;2023-04-21T02:17:21;19.30;;;14.82;;
31464;SDS011;18089;47.428;15.006;2023-04-21T02:19:53;20.38;;;16.45;;
31464;SDS011;18089;47.428;15.006;2023-04-21T02:22:25;22.05;;;16.38;;
31464;SDS011;18089;47.428;15.006;2023-04-21T02:24:59;17.98;;;15.65;;
31464;SDS011;18089;47.428;15.006;2023-04-21T02:27:31;22.10;;;15.38;;
31464;SDS011;18089;47.428;15.006;2023-04-21T02:30:03;16.45;;;14.65;;
31464;SDS011;18089;47.428;15.006;2023-04-21T02:32:36;16.08;;;14.25;;
31464;SDS011;18089;47.428;15.006;2023-04-21T02:35:08;15.75;;;13.85;;
31464;SDS011;18089;47.428;15.006;2023-04-21T02:37:40;15.20;;;13.63;;
31464;SDS011;18089;47.428;15.006;2023-04-21T02:40:14;15.25;;;13.85;;
31464;SDS011;18089;47.428;15.006;2023-04-21T02:42:46;13.25;;;12.07;;
31464;SDS011;18089;47.428;15.006;2023-04-21T02:45:18;13.20;;;11.88;;
31464;SDS011;18089;47.428;15.006;2023-04-21T02:47:50;12.68;;;11.40;;
31464;SDS011;18089;47.428;15.006;2023-04-21T02:50:22;13.93;;;12.57;;
31464;SDS011;18089;47.428;15.006;2023-04-21T02:52:54;12.77;;;11.60;;
31464;SDS011;18089;47.428;15.006;2023-04-21T02:55:27;12.30;;;11.30;;
31464;SDS011;18089;47.428;15.006;2023-04-21T02:58:00;13.38;;;11.93;;
31464;SDS011;18089;47.428;15.006;2023-04-21T03:00:32;13.80;;;12.60;;
31464;SDS011;18089;47.428;15.006;2023-04-21T03:03:04;13.05;;;11.95;;
31464;SDS011;18089;47.428;15.006;2023-04-21T03:05:36;13.38;;;12.18;;
31464;SDS011;18089;47.428;15.006;2023-04-21T03:08:08;13.23;;;11.73;;
31464;SDS011;18089;47.428;15.006;2023-04-21T03:10:41;15.65;;;14.15;;
31464;SDS011;18089;47.428;15.006;2023-04-21T03:13:13;15.10;;;13.55;;
31464;SDS011;18089;47.428;15.006;2023-04-21T03:15:45;14.73;;;13.20;;
31464;SDS011;18089;47.428;15.006;2023-04-21T03:18:17;14.48;;;13.00;;
31464;SDS011;18089;47.428;15.006;2023-04-21T03:20:50;15.15;;;13.75;;
31464;SDS011;18089;47.428;15.006;2023-04-21T03:23:22;19.00;;;15.85;;
31464;SDS011;18089;47.428;15.006;2023-04-21T03:25:55;21.15;;;17.10;;
31464;SDS011;18089;47.428;15.006;2023-04-21T03:28:27;24.08;;;17.60;;
31464;SDS011;18089;47.428;15.006;2023-04-21T03:31:00;24.95;;;20.02;;
31464;SDS011;18089;47.428;15.006;2023-04-21T03:33:32;32.95;;;20.27;;
31464;SDS011;18089;47.428;15.006;2023-04-21T03:36:04;28.40;;;20.70;;
31464;SDS011;18089;47.428;15.006;2023-04-21T03:38:39;30.95;;;21.08;;
31464;SDS011;18089;47.428;15.006;2023-04-21T03:41:13;33.38;;;20.55;;
31464;SDS011;18089;47.428;15.006;2023-04-21T03:43:45;29.92;;;20.35;;
31464;SDS011;18089;47.428;15.006;2023-04-21T03:46:17;33.08;;;21.42;;
31464;SDS011;18089;47.428;15.006;2023-04-21T03:48:49;28.77;;;20.70;;
31464;SDS011;18089;47.428;15.006;2023-04-21T03:51:21;30.52;;;20.95;;
31464;SDS011;18089;47.428;15.006;2023-04-21T03:53:54;30.90;;;21.45;;
31464;SDS011;18089;47.428;15.006;2023-04-21T03:56:27;36.60;;;22.13;;
31464;SDS011;18089;47.428;15.006;2023-04-21T03:58:59;35.90;;;21.35;;
31464;SDS011;18089;47.428;15.006;2023-04-21T04:01:32;28.55;;;21.08;;
31464;SDS011;18089;47.428;15.006;2023-04-21T04:04:04;28.63;;;20.13;;
31464;SDS011;18089;47.428;15.006;2023-04-21T04:06:36;31.67;;;21.52;;
31464;SDS011;18089;47.428;15.006;2023-04-21T04:09:08;32.95;;;21.98;;
31464;SDS011;18089;47.428;15.006;2023-04-21T04:11:41;31.55;;;21.67;;
31464;SDS011;18089;47.428;15.006;2023-04-21T04:14:13;31.25;;;21.92;;
31464;SDS011;18089;47.428;15.006;2023-04-21T04:16:45;35.58;;;22.10;;
31464;SDS011;18089;47.428;15.006;2023-04-21T04:19:17;37.03;;;20.90;;
31464;SDS011;18089;47.428;15.006;2023-04-21T04:21:49;35.22;;;20.90;;
31464;SDS011;18089;47.428;15.006;2023-04-21T04:24:21;31.40;;;20.85;;
31464;SDS011;18089;47.428;15.006;2023-04-21T04:26:57;34.20;;;21.05;;
31464;SDS011;18089;47.428;15.006;2023-04-21T04:29:29;32.72;;;21.05;;
31464;SDS011;18089;47.428;15.006;2023-04-21T04:32:02;36.53;;;21.48;;
31464;SDS011;18089;47.428;15.006;2023-04-21T04:34:36;35.85;;;20.58;;
31464;SDS011;18089;47.428;15.006;2023-04-21T04:37:09;27.42;;;19.98;;
31464;SDS011;18089;47.428;15.006;2023-04-21T04:39:42;27.45;;;20.65;;
31464;SDS011;18089;47.428;15.006;2023-04-21T04:42:15;36.60;;;20.35;;
31464;SDS011;18089;47.428;15.006;2023-04-21T04:44:51;35.97;;;20.67;;
31464;SDS011;18089;47.428;15.006;2023-04-21T04:47:23;24.90;;;19.27;;
31464;SDS011;18089;47.428;15.006;2023-04-21T04:49:55;28.75;;;19.60;;
31464;SDS011;18089;47.428;15.006;2023-04-21T04:52:27;31.45;;;20.23;;
31464;SDS011;18089;47.428;15.006;2023-04-21T04:55:00;31.15;;;19.55;;
31464;SDS011;18089;47.428;15.006;2023-04-21T04:57:33;29.00;;;19.67;;
31464;SDS011;18089;47.428;15.006;2023-04-21T05:00:06;32.85;;;18.88;;
31464;SDS011;18089;47.428;15.006;2023-04-21T05:02:40;28.08;;;18.08;;
31464;SDS011;18089;47.428;15.006;2023-04-21T05:05:12;29.63;;;18.90;;
31464;SDS011;18089;47.428;15.006;2023-04-21T05:07:44;27.70;;;17.92;;
31464;SDS011;18089;47.428;15.006;2023-04-21T05:10:16;30.23;;;18.80;;
31464;SDS011;18089;47.428;15.006;2023-04-21T05:12:49;28.05;;;19.52;;
31464;SDS011;18089;47.428;15.006;2023-04-21T05:15:21;27.10;;;18.30;;
31464;SDS011;18089;47.428;15.006;2023-04-21T05:17:54;28.58;;;19.48;;
31464;SDS011;18089;47.428;15.006;2023-04-21T05:20:26;29.90;;;18.67;;
31464;SDS011;18089;47.428;15.006;2023-04-21T05:22:58;30.13;;;18.83;;
31464;SDS011;18089;47.428;15.006;2023-04-21T05:25:30;24.23;;;18.92;;
31464;SDS011;18089;47.428;15.006;2023-04-21T05:28:03;26.45;;;18.55;;
31464;SDS011;18089;47.428;15.006;2023-04-21T05:30:35;28.80;;;19.10;;
31464;SDS011;18089;47.428;15.006;2023-04-21T05:33:07;22.48;;;18.33;;
31464;SDS011;18089;47.428;15.006;2023-04-21T05:35:39;26.38;;;18.17;;
31464;SDS011;18089;47.428;15.006;2023-04-21T05:38:11;29.40;;;19.90;;
31464;SDS011;18089;47.428;15.006;2023-04-21T05:40:43;34.63;;;20.05;;
31464;SDS011;18089;47.428;15.006;2023-04-21T05:43:16;31.67;;;20.45;;
31464;SDS011;18089;47.428;15.006;2023-04-21T05:45:48;37.03;;;21.27;;
31464;SDS011;18089;47.428;15.006;2023-04-21T05:48:20;37.20;;;20.52;;
31464;SDS011;18089;47.428;15.006;2023-04-21T05:50:53;26.48;;;19.98;;
31464;SDS011;18089;47.428;15.006;2023-04-21T05:53:25;37.78;;;20.98;;
31464;SDS011;18089;47.428;15.006;2023-04-21T05:55:58;32.35;;;19.70;;
31464;SDS011;18089;47.428;15.006;2023-04-21T05:58:31;34.55;;;21.15;;
31464;SDS011;18089;47.428;15.006;2023-04-21T06:01:04;31.75;;;20.48;;
31464;SDS011;18089;47.428;15.006;2023-04-21T06:03:36;30.17;;;20.65;;
31464;SDS011;18089;47.428;15.006;2023-04-21T06:06:08;33.30;;;19.98;;
31464;SDS011;18089;47.428;15.006;2023-04-21T06:08:40;36.88;;;19.92;;
31464;SDS011;18089;47.428;15.006;2023-04-21T06:11:12;32.10;;;19.88;;
31464;SDS011;18089;47.428;15.006;2023-04-21T06:13:46;33.00;;;19.30;;
31464;SDS011;18089;47.428;15.006;2023-04-21T06:16:18;26.80;;;18.58;;
31464;SDS011;18089;47.428;15.006;2023-04-21T06:18:50;30.08;;;18.83;;
31464;SDS011;18089;47.428;15.006;2023-04-21T06:21:22;32.67;;;18.40;;
31464;SDS011;18089;47.428;15.006;2023-04-21T06:23:54;35.72;;;19.33;;
31464;SDS011;18089;47.428;15.006;2023-04-21T06:26:26;33.08;;;20.75;;
31464;SDS011;18089;47.428;15.006;2023-04-21T06:28:59;27.20;;;18.88;;
31464;SDS011;18089;47.428;15.006;2023-04-21T06:31:31;31.52;;;19.75;;
31464;SDS011;18089;47.428;15.006;2023-04-21T06:34:03;37.50;;;20.80;;
31464;SDS011;18089;47.428;15.006;2023-04-21T06:36:35;35.47;;;21.60;;
31464;SDS011;18089;47.428;15.006;2023-04-21T06:39:07;31.10;;;20.67;;
31464;SDS011;18089;47.428;15.006;2023-04-21T06:41:39;29.13;;;19.58;;
31464;SDS011;18089;47.428;15.006;2023-04-21T06:44:12;33.15;;;19.98;;
31464;SDS011;18089;47.428;15.006;2023-04-21T06:46:44;33.70;;;20.85;;
31464;SDS011;18089;47.428;15.006;2023-04-21T06:49:17;32.50;;;20.25;;
31464;SDS011;18089;47.428;15.006;2023-04-21T06:51:49;30.33;;;18.52;;
31464;SDS011;18089;47.428;15.006;2023-04-21T06:54:21;32.28;;;19.17;;
31464;SDS011;18089;47.428;15.006;2023-04-21T06:56:53;22.63;;;17.35;;
31464;SDS011;18089;47.428;15.006;2023-04-21T06:59:27;28.80;;;16.92;;
31464;SDS011;18089;47.428;15.006;2023-04-21T07:01:59;23.65;;;16.05;;
31464;SDS011;18089;47.428;15.006;2023-04-21T07:04:31;21.52;;;16.23;;
31464;SDS011;18089;47.428;15.006;2023-04-21T07:07:03;22.05;;;15.02;;
31464;SDS011;18089;47.428;15.006;2023-04-21T07:09:35;24.35;;;15.80;;
31464;SDS011;18089;47.428;15.006;2023-04-21T07:12:07;25.35;;;16.45;;
31464;SDS011;18089;47.428;15.006;2023-04-21T07:14:41;24.63;;;16.20;;
31464;SDS011;18089;47.428;15.006;2023-04-21T07:17:13;22.13;;;15.65;;
31464;SDS011;18089;47.428;15.006;2023-04-21T07:19:45;16.23;;;13.02;;
31464;SDS011;18089;47.428;15.006;2023-04-21T07:22:17;16.98;;;13.80;;
31464;SDS011;18089;47.428;15.006;2023-04-21T07:24:49;21.30;;;13.70;;
31464;SDS011;18089;47.428;15.006;2023-04-21T07:27:21;16.45;;;13.00;;
31464;SDS011;18089;47.428;15.006;2023-04-21T07:29:54;19.80;;;13.27;;
31464;SDS011;18089;47.428;15.006;2023-04-21T07:32:26;20.20;;;13.48;;
31464;SDS011;18089;47.428;15.006;2023-04-21T07:34:58;15.15;;;12.68;;
31464;SDS011;18089;47.428;15.006;2023-04-21T07:37:32;17.98;;;13.07;;
31464;SDS011;18089;47.428;15.006;2023-04-21T07:40:04;16.15;;;13.00;;
31464;SDS011;18089;47.428;15.006;2023-04-21T07:42:37;18.40;;;12.93;;
31464;SDS011;18089;47.428;15.006;2023-04-21T07:45:11;17.48;;;12.88;;
31464;SDS011;18089;47.428;15.006;2023-04-21T07:47:43;17.95;;;12.15;;
31464;SDS011;18089;47.428;15.006;2023-04-21T07:50:15;18.15;;;11.95;;
31464;SDS011;18089;47.428;15.006;2023-04-21T07:52:47;18.20;;;13.68;;
31464;SDS011;18089;47.428;15.006;2023-04-21T07:55:19;16.60;;;12.55;;
31464;SDS011;18089;47.428;15.006;2023-04-21T07:57:51;16.40;;;12.40;;
31464;SDS011;18089;47.428;15.006;2023-04-21T08:00:25;13.18;;;11.77;;
31464;SDS011;18089;47.428;15.006;2023-04-21T08:02:57;16.15;;;11.77;;
31464;SDS011;18089;47.428;15.006;2023-04-21T08:05:29;13.27;;;11.07;;
31464;SDS011;18089;47.428;15.006;2023-04-21T08:08:01;14.80;;;12.15;;
31464;SDS011;18089;47.428;15.006;2023-04-21T08:10:33;20.55;;;13.07;;
31464;SDS011;18089;47.428;15.006;2023-04-21T08:13:05;15.95;;;12.20;;
31464;SDS011;18089;47.428;15.006;2023-04-21T08:15:39;16.63;;;11.75;;
31464;SDS011;18089;47.428;15.006;2023-04-21T08:18:11;19.92;;;11.93;;
31464;SDS011;18089;47.428;15.006;2023-04-21T08:20:46;15.18;;;10.70;;
31464;SDS011;18089;47.428;15.006;2023-04-21T08:23:18;14.05;;;9.57;;
31464;SDS011;18089;47.428;15.006;2023-04-21T08:25:50;14.30;;;10.50;;
31464;SDS011;18089;47.428;15.006;2023-04-21T08:28:22;14.73;;;10.45;;
31464;SDS011;18089;47.428;15.006;2023-04-21T08:30:55;14.32;;;10.45;;
31464;SDS011;18089;47.428;15.006;2023-04-21T08:33:29;15.73;;;9.98;;
31464;SDS011;18089;47.428;15.006;2023-04-21T08:36:01;11.18;;;9.73;;
31464;SDS011;18089;47.428;15.006;2023-04-21T08:38:33;11.98;;;9.90;;
31464;SDS011;18089;47.428;15.006;2023-04-21T08:41:05;12.95;;;10.02;;
31464;SDS011;18089;47.428;15.006;2023-04-21T08:43:38;12.82;;;10.00;;
31464;SDS011;18089;47.428;15.006;2023-04-21T08:46:11;12.52;;;9.77;;
31464;SDS011;18089;47.428;15.006;2023-04-21T08:48:44;16.38;;;10.93;;
31464;SDS011;18089;47.428;15.006;2023-04-21T08:51:19;13.75;;;11.38;;
31464;SDS011;18089;47.428;15.006;2023-04-21T08:53:53;13.00;;;10.98;;
31464;SDS011;18089;47.428;15.006;2023-04-21T08:56:25;12.95;;;10.10;;
31464;SDS011;18089;47.428;15.006;2023-04-21T08:58:57;14.25;;;11.38;;
31464;SDS011;18089;47.428;15.006;2023-04-21T09:01:31;18.05;;;12.25;;
31464;SDS011;18089;47.428;15.006;2023-04-21T09:04:14;16.20;;;11.40;;
31464;SDS011;18089;47.428;15.006;2023-04-21T09:06:46;17.70;;;11.10;;
31464;SDS011;18089;47.428;15.006;2023-04-21T09:09:18;18.15;;;11.30;;
31464;SDS011;18089;47.428;15.006;2023-04-21T09:11:53;20.38;;;11.43;;
31464;SDS011;18089;47.428;15.006;2023-04-21T09:14:30;17.00;;;11.20;;
31464;SDS011;18089;47.428;15.006;2023-04-21T09:17:04;14.48;;;11.18;;
31464;SDS011;18089;47.428;15.006;2023-04-21T09:19:36;18.30;;;11.68;;
31464;SDS011;18089;47.428;15.006;2023-04-21T09:22:08;15.48;;;11.80;;
31464;SDS011;18089;47.428;15.006;2023-04-21T09:24:43;16.17;;;11.30;;
31464;SDS011;18089;47.428;15.006;2023-04-21T09:27:16;18.15;;;10.75;;
31464;SDS011;18089;47.428;15.006;2023-04-21T09:29:48;14.85;;;10.98;;
31464;SDS011;18089;47.428;15.006;2023-04-21T09:32:22;14.25;;;10.75;;
31464;SDS011;18089;47.428;15.006;2023-04-21T09:34:58;14.00;;;10.70;;
31464;SDS011;18089;47.428;15.006;2023-04-21T09:37:31;14.88;;;10.10;;
31464;SDS011;18089;47.428;15.006;2023-04-21T09:40:04;12.60;;;10.60;;
31464;SDS011;18089;47.428;15.006;2023-04-21T09:42:36;16.35;;;10.43;;
31464;SDS011;18089;47.428;15.006;2023-04-21T09:45:08;13.95;;;10.10;;
31464;SDS011;18089;47.428;15.006;2023-04-21T09:47:42;12.38;;;9.43;;
31464;SDS011;18089;47.428;15.006;2023-04-21T09:50:14;14.75;;;9.07;;
31464;SDS011;18089;47.428;15.006;2023-04-21T09:52:48;15.20;;;9.80;;
31464;SDS011;18089;47.428;15.006;2023-04-21T09:55:23;11.98;;;9.85;;
31464;SDS011;18089;47.428;15.006;2023-04-21T09:57:58;13.20;;;9.10;;
31464;SDS011;18089;47.428;15.006;2023-04-21T10:00:31;12.93;;;9.23;;
31464;SDS011;18089;47.428;15.006;2023-04-21T10:03:09;10.93;;;8.77;;
31464;SDS011;18089;47.428;15.006;2023-04-21T10:05:42;10.40;;;9.30;;
31464;SDS011;18089;47.428;15.006;2023-04-21T10:08:15;12.18;;;10.02;;
31464;SDS011;18089;47.428;15.006;2023-04-21T10:10:47;14.15;;;9.52;;
31464;SDS011;18089;47.428;15.006;2023-04-21T10:13:21;12.35;;;8.85;;
31464;SDS011;18089;47.428;15.006;2023-04-21T10:16:00;9.93;;;8.93;;
31464;SDS011;18089;47.428;15.006;2023-04-21T10:18:38;11.48;;;9.43;;
31464;SDS011;18089;47.428;15.006;2023-04-21T10:21:16;12.73;;;9.75;;
31464;SDS011;18089;47.428;15.006;2023-04-21T10:23:51;12.80;;;9.90;;
31464;SDS011;18089;47.428;15.006;2023-04-21T10:26:24;12.93;;;9.48;;
31464;SDS011;18089;47.428;15.006;2023-04-21T10:28:58;13.20;;;10.02;;
31464;SDS011;18089;47.428;15.006;2023-04-21T10:31:31;11.60;;;10.30;;
31464;SDS011;18089;47.428;15.006;2023-04-21T10:37:12;11.73;;;10.57;;
31464;SDS011;18089;47.428;15.006;2023-04-21T10:39:52;12.85;;;9.57;;
31464;SDS011;18089;47.428;15.006;2023-04-21T10:42:28;12.68;;;9.70;;
31464;SDS011;18089;47.428;15.006;2023-04-21T10:45:09;14.48;;;10.32;;
31464;SDS011;18089;47.428;15.006;2023-04-21T10:47:45;10.30;;;9.20;;
31464;SDS011;18089;47.428;15.006;2023-04-21T10:50:22;11.18;;;10.00;;
31464;SDS011;18089;47.428;15.006;2023-04-21T10:52:56;11.00;;;9.65;;
31464;SDS011;18089;47.428;15.006;2023-04-21T10:55:30;11.88;;;9.43;;
31464;SDS011;18089;47.428;15.006;2023-04-21T10:58:03;9.77;;;8.63;;
31464;SDS011;18089;47.428;15.006;2023-04-21T11:00:36;8.93;;;8.02;;
31464;SDS011;18089;47.428;15.006;2023-04-21T11:03:09;9.75;;;8.70;;
31464;SDS011;18089;47.428;15.006;2023-04-21T11:05:42;8.77;;;7.88;;
31464;SDS011;18089;47.428;15.006;2023-04-21T11:08:15;9.95;;;8.95;;
31464;SDS011;18089;47.428;15.006;2023-04-21T11:10:48;10.20;;;9.18;;
31464;SDS011;18089;47.428;15.006;2023-04-21T11:13:23;10.45;;;8.63;;
31464;SDS011;18089;47.428;15.006;2023-04-21T11:15:57;10.10;;;9.13;;
31464;SDS011;18089;47.428;15.006;2023-04-21T11:18:33;10.35;;;9.25;;
31464;SDS011;18089;47.428;15.006;2023-04-21T11:21:10;11.38;;;9.07;;
31464;SDS011;18089;47.428;15.006;2023-04-21T11:23:47;9.68;;;8.75;;
31464;SDS011;18089;47.428;15.006;2023-04-21T11:26:30;10.25;;;9.25;;
31464;SDS011;18089;47.428;15.006;2023-04-21T11:29:03;9.93;;;7.70;;
31464;SDS011;18089;47.428;15.006;2023-04-21T11:31:36;9.88;;;8.60;;
31464;SDS011;18089;47.428;15.006;2023-04-21T11:34:09;10.02;;;8.85;;
31464;SDS011;18089;47.428;15.006;2023-04-21T11:36:43;9.48;;;8.32;;
31464;SDS011;18089;47.428;15.006;2023-04-21T11:39:16;9.90;;;8.90;;
31464;SDS011;18089;47.428;15.006;2023-04-21T11:41:50;10.30;;;9.18;;
31464;SDS011;18089;47.428;15.006;2023-04-21T11:44:32;8.93;;;8.13;;
31464;SDS011;18089;47.428;15.006;2023-04-21T11:47:11;11.07;;;8.15;;
31464;SDS011;18089;47.428;15.006;2023-04-21T11:49:44;8.75;;;7.80;;
31464;SDS011;18089;47.428;15.006;2023-04-21T11:52:22;8.55;;;7.72;;
31464;SDS011;18089;47.428;15.006;2023-04-21T11:54:57;10.30;;;8.75;;
31464;SDS011;18089;47.428;15.006;2023-04-21T11:57:29;8.93;;;8.10;;
31464;SDS011;18089;47.428;15.006;2023-04-21T12:00:03;8.75;;;7.85;;
31464;SDS011;18089;47.428;15.006;2023-04-21T12:02:37;9.13;;;8.32;;
31464;SDS011;18089;47.428;15.006;2023-04-21T12:05:10;8.27;;;7.47;;
31464;SDS011;18089;47.428;15.006;2023-04-21T12:07:44;11.15;;;7.70;;
31464;SDS011;18089;47.428;15.006;2023-04-21T12:10:18;10.45;;;8.30;;
31464;SDS011;18089;47.428;15.006;2023-04-21T12:12:51;9.05;;;8.10;;
31464;SDS011;18089;47.428;15.006;2023-04-21T12:15:23;8.90;;;7.97;;
31464;SDS011;18089;47.428;15.006;2023-04-21T12:17:55;9.35;;;8.15;;
31464;SDS011;18089;47.428;15.006;2023-04-21T12:20:27;11.88;;;8.60;;
31464;SDS011;18089;47.428;15.006;2023-04-21T12:23:01;9.55;;;8.63;;
31464;SDS011;18089;47.428;15.006;2023-04-21T12:25:33;10.10;;;9.00;;
31464;SDS011;18089;47.428;15.006;2023-04-21T12:28:05;10.52;;;8.15;;
31464;SDS011;18089;47.428;15.006;2023-04-21T12:30:39;9.80;;;8.23;;
31464;SDS011;18089;47.428;15.006;2023-04-21T12:33:11;11.18;;;8.20;;
31464;SDS011;18089;47.428;15.006;2023-04-21T12:35:43;8.43;;;7.60;;
31464;SDS011;18089;47.428;15.006;2023-04-21T12:38:16;8.43;;;7.63;;
31464;SDS011;18089;47.428;15.006;2023-04-21T12:40:48;8.65;;;7.78;;
31464;SDS011;18089;47.428;15.006;2023-04-21T12:43:20;8.90;;;8.00;;
31464;SDS011;18089;47.428;15.006;2023-04-21T12:45:52;10.05;;;9.15;;
31464;SDS011;18089;47.428;15.006;2023-04-21T12:48:24;8.50;;;7.80;;
31464;SDS011;18089;47.428;15.006;2023-04-21T12:50:56;8.15;;;7.45;;
31464;SDS011;18089;47.428;15.006;2023-04-21T12:53:30;9.20;;;8.40;;
31464;SDS011;18089;47.428;15.006;2023-04-21T12:56:02;8.82;;;8.02;;
31464;SDS011;18089;47.428;15.006;2023-04-21T12:58:35;8.32;;;7.53;;
31464;SDS011;18089;47.428;15.006;2023-04-21T13:01:07;8.02;;;7.30;;
31464;SDS011;18089;47.428;15.006;2023-04-21T13:03:41;8.75;;;7.57;;
31464;SDS011;18089;47.428;15.006;2023-04-21T13:06:13;7.07;;;6.40;;
31464;SDS011;18089;47.428;15.006;2023-04-21T13:08:46;7.50;;;6.80;;
31464;SDS011;18089;47.428;15.006;2023-04-21T13:11:18;7.53;;;6.93;;
31464;SDS011;18089;47.428;15.006;2023-04-21T13:13:50;6.35;;;5.85;;
31464;SDS011;18089;47.428;15.006;2023-04-21T13:16:22;6.70;;;6.00;;
31464;SDS011;18089;47.428;15.006;2023-04-21T13:18:54;6.60;;;5.90;;
31464;SDS011;18089;47.428;15.006;2023-04-21T13:21:26;6.70;;;6.03;;
31464;SDS011;18089;47.428;15.006;2023-04-21T13:24:00;6.50;;;5.90;;
31464;SDS011;18089;47.428;15.006;2023-04-21T13:26:32;6.30;;;5.80;;
31464;SDS011;18089;47.428;15.006;2023-04-21T13:29:05;6.60;;;6.00;;
31464;SDS011;18089;47.428;15.006;2023-04-21T13:31:37;6.43;;;5.82;;
31464;SDS011;18089;47.428;15.006;2023-04-21T13:34:09;7.25;;;6.53;;
31464;SDS011;18089;47.428;15.006;2023-04-21T13:36:41;7.25;;;6.55;;
31464;SDS011;18089;47.428;15.006;2023-04-21T13:39:15;6.93;;;6.20;;
31464;SDS011;18089;47.428;15.006;2023-04-21T13:41:47;6.90;;;6.30;;
31464;SDS011;18089;47.428;15.006;2023-04-21T13:44:19;5.57;;;5.07;;
31464;SDS011;18089;47.428;15.006;2023-04-21T13:46:51;6.70;;;5.95;;
31464;SDS011;18089;47.428;15.006;2023-04-21T13:49:23;6.32;;;5.80;;
31464;SDS011;18089;47.428;15.006;2023-04-21T13:51:55;6.35;;;5.13;;
31464;SDS011;18089;47.428;15.006;2023-04-21T13:54:29;6.82;;;6.00;;
31464;SDS011;18089;47.428;15.006;2023-04-21T13:57:00;5.45;;;4.95;;
31464;SDS011;18089;47.428;15.006;2023-04-21T13:59:33;5.75;;;5.25;;
31464;SDS011;18089;47.428;15.006;2023-04-21T14:02:05;5.75;;;5.25;;
31464;SDS011;18089;47.428;15.006;2023-04-21T14:04:37;5.25;;;4.75;;
31464;SDS011;18089;47.428;15.006;2023-04-21T14:07:09;5.60;;;5.05;;
31464;SDS011;18089;47.428;15.006;2023-04-21T14:09:45;4.78;;;4.30;;
31464;SDS011;18089;47.428;15.006;2023-04-21T14:12:17;4.50;;;3.85;;
31464;SDS011;18089;47.428;15.006;2023-04-21T14:14:49;4.43;;;3.80;;
31464;SDS011;18089;47.428;15.006;2023-04-21T14:17:21;4.60;;;3.95;;
31464;SDS011;18089;47.428;15.006;2023-04-21T14:19:53;5.35;;;4.43;;
31464;SDS011;18089;47.428;15.006;2023-04-21T14:22:25;5.13;;;4.45;;
31464;SDS011;18089;47.428;15.006;2023-04-21T14:24:58;5.65;;;5.00;;
31464;SDS011;18089;47.428;15.006;2023-04-21T14:27:31;7.18;;;6.47;;
31464;SDS011;18089;47.428;15.006;2023-04-21T14:30:03;6.28;;;5.68;;
31464;SDS011;18089;47.428;15.006;2023-04-21T14:32:36;7.80;;;7.00;;
31464;SDS011;18089;47.428;15.006;2023-04-21T14:35:13;6.90;;;6.30;;
31464;SDS011;18089;47.428;15.006;2023-04-21T14:37:45;7.50;;;6.80;;
31464;SDS011;18089;47.428;15.006;2023-04-21T14:40:19;7.72;;;7.03;;
31464;SDS011;18089;47.428;15.006;2023-04-21T14:42:51;9.00;;;7.30;;
31464;SDS011;18089;47.428;15.006;2023-04-21T14:45:24;8.68;;;7.88;;
31464;SDS011;18089;47.428;15.006;2023-04-21T14:47:56;8.73;;;7.93;;
31464;SDS011;18089;47.428;15.006;2023-04-21T14:50:28;8.00;;;7.30;;